Time;durP1;ratioP1;P1;durP2;ratioP2;P2;SDS_P1;SDS_P2;PMS_P1;PMS_P2;Temp;Humidity;BMP_temperature;BMP_pressure;BME280_temperature;BME280_humidity;BME280_pressure;Samples;Min_cycle;Max_cycle;Signal;HPM_P1;HPM_P2
2022/11/11 00:00:50;;;;;;;58.13;19.75;;;7.50;99.90;;;;;;5077279;28;20073;-74
2022/11/11 00:03:35;;;;;;;54.55;18.45;;;7.40;99.90;;;;;;5078149;28;20058;-74
2022/11/11 00:06:21;;;;;;;58.47;17.80;;;7.40;99.90;;;;;;5081687;28;20596;-75
2022/11/11 00:09:08;;;;;;;49.90;17.50;;;7.40;99.90;;;;;;5077685;28;20063;-75
2022/11/11 00:11:53;;;;;;;67.85;21.08;;;7.30;99.90;;;;;;5076212;28;20063;-75
2022/11/11 00:14:39;;;;;;;59.65;18.77;;;7.30;99.90;;;;;;5078416;28;20043;-74
2022/11/11 00:26:38;;;;;;;64.53;19.10;;;7.20;99.90;;;;;;5077815;28;20059;-74
2022/11/11 00:29:25;;;;;;;51.60;17.40;;;7.20;99.90;;;;;;5082386;28;20055;-74
2022/11/11 00:32:22;;;;;;;59.00;17.45;;;7.20;99.90;;;;;;5077989;28;20055;-76
2022/11/11 00:41:24;;;;;;;61.42;19.13;;;7.10;99.90;;;;;;5070021;28;20039;-76
2022/11/11 00:44:10;;;;;;;74.53;21.58;;;7.00;99.90;;;;;;5072063;28;20038;-76
2022/11/11 00:53:09;;;;;;;60.22;19.08;;;6.90;99.90;;;;;;5079040;28;20059;-76
2022/11/11 00:55:56;;;;;;;61.25;19.35;;;6.90;99.90;;;;;;5071795;28;20992;-76
2022/11/11 00:58:42;;;;;;;62.10;19.65;;;6.90;99.90;;;;;;5074733;28;20055;-76
2022/11/11 01:01:27;;;;;;;61.35;17.88;;;6.90;99.90;;;;;;5078366;28;20063;-76
2022/11/11 01:04:13;;;;;;;57.78;18.85;;;6.90;99.90;;;;;;5078671;28;20087;-76
2022/11/11 01:06:59;;;;;;;55.05;19.58;;;6.80;99.90;;;;;;5077419;28;20518;-76
2022/11/11 01:09:44;;;;;;;76.53;23.95;;;6.80;99.90;;;;;;5079495;28;20043;-76
2022/11/11 01:12:30;;;;;;;76.47;23.70;;;6.80;99.90;;;;;;5071698;28;20059;-76
2022/11/11 01:15:15;;;;;;;68.28;23.23;;;6.80;99.90;;;;;;5073462;28;20390;-76
2022/11/11 01:18:01;;;;;;;65.30;21.60;;;6.80;99.90;;;;;;5077195;28;20055;-76
2022/11/11 01:20:47;;;;;;;65.20;21.40;;;6.80;99.90;;;;;;5077061;28;20166;-76
2022/11/11 01:23:36;;;;;;;67.75;21.92;;;6.70;99.90;;;;;;5073498;28;20043;-76
2022/11/11 01:26:24;;;;;;;61.47;19.73;;;6.70;99.90;;;;;;5075647;28;20093;-76
2022/11/11 01:29:15;;;;;;;61.80;20.65;;;6.70;99.90;;;;;;5077497;28;20070;-76
2022/11/11 01:32:01;;;;;;;67.65;20.33;;;6.70;99.90;;;;;;5076840;28;20051;-76
2022/11/11 01:34:46;;;;;;;72.57;21.23;;;6.70;99.90;;;;;;5075356;28;20056;-76
2022/11/11 01:37:33;;;;;;;72.72;20.55;;;6.70;99.90;;;;;;5080650;28;20052;-76
2022/11/11 01:40:18;;;;;;;63.25;20.13;;;6.60;99.90;;;;;;5079336;28;20117;-76
2022/11/11 01:43:04;;;;;;;64.70;21.20;;;6.60;99.90;;;;;;5076664;28;20043;-76
2022/11/11 01:45:53;;;;;;;68.28;20.90;;;6.50;99.90;;;;;;5076868;28;20133;-77
2022/11/11 01:52:10;;;;;;;76.43;21.17;;;6.50;99.90;;;;;;5074339;28;20057;-76
2022/11/11 01:55:09;;;;;;;73.47;21.02;;;6.40;99.90;;;;;;5075215;28;20208;-76
2022/11/11 01:58:05;;;;;;;69.05;21.23;;;6.40;99.90;;;;;;5076828;28;20052;-76
2022/11/11 02:00:51;;;;;;;68.05;21.42;;;6.40;99.90;;;;;;5078409;28;20557;-76
2022/11/11 02:05:40;;;;;;;71.43;21.80;;;6.40;99.90;;;;;;5078049;28;20101;-76
2022/11/11 02:06:54;;;;;;;64.85;19.83;;;6.40;99.90;;;;;;5078140;28;20047;-76
2022/11/11 02:09:45;;;;;;;67.35;20.50;;;6.40;99.90;;;;;;5078090;28;20115;-76
2022/11/11 02:15:36;;;;;;;75.28;23.63;;;6.30;99.90;;;;;;5081355;28;20069;-76
2022/11/11 02:18:22;;;;;;;80.50;24.75;;;6.30;99.90;;;;;;5077249;28;20117;-76
2022/11/11 02:21:17;;;;;;;79.60;24.17;;;6.20;99.90;;;;;;5080755;28;20521;-76
2022/11/11 02:24:14;;;;;;;78.68;25.15;;;6.20;99.90;;;;;;5079503;28;20505;-76
2022/11/11 02:27:01;;;;;;;75.47;22.83;;;6.20;99.90;;;;;;5080313;28;20071;-76
2022/11/11 02:29:50;;;;;;;75.68;21.83;;;6.20;99.90;;;;;;5080494;28;20133;-76
2022/11/11 02:32:35;;;;;;;68.15;21.33;;;6.20;99.90;;;;;;5079253;28;20063;-76
2022/11/11 02:35:28;;;;;;;68.38;22.33;;;6.20;99.90;;;;;;5084065;28;20415;-76
2022/11/11 02:38:14;;;;;;;67.53;20.65;;;6.20;99.90;;;;;;5074310;28;20088;-76
2022/11/11 02:44:04;;;;;;;64.55;20.73;;;6.20;99.90;;;;;;5080477;28;20522;-76
2022/11/11 02:46:50;;;;;;;69.07;21.90;;;6.10;99.90;;;;;;5098774;28;20058;-76
2022/11/11 02:49:35;;;;;;;63.90;21.90;;;6.10;99.90;;;;;;5080993;28;20101;-76
2022/11/11 02:52:21;;;;;;;63.90;21.38;;;6.10;99.90;;;;;;5079904;28;20067;-76
2022/11/11 02:55:08;;;;;;;68.13;19.88;;;6.20;99.90;;;;;;5081053;28;20579;-76
2022/11/11 02:57:54;;;;;;;62.05;19.83;;;6.10;99.90;;;;;;5068278;28;20063;-76
2022/11/11 03:00:41;;;;;;;58.15;19.23;;;6.00;99.90;;;;;;5077571;28;20155;-76
2022/11/11 03:03:27;;;;;;;70.85;20.17;;;6.00;99.90;;;;;;5077416;28;20048;-76
2022/11/11 03:06:13;;;;;;;61.38;18.83;;;6.00;99.90;;;;;;5078982;28;20060;-76
2022/11/11 03:08:59;;;;;;;59.83;18.58;;;6.00;99.90;;;;;;5078540;28;20056;-76
2022/11/11 03:11:45;;;;;;;56.90;18.58;;;6.00;99.90;;;;;;5080418;28;22798;-76
2022/11/11 03:14:30;;;;;;;56.05;17.70;;;6.00;99.90;;;;;;5073814;28;20939;-76
2022/11/11 03:23:24;;;;;;;64.20;19.02;;;5.90;99.90;;;;;;5075132;28;20059;-76
2022/11/11 03:26:09;;;;;;;65.65;20.65;;;5.90;99.90;;;;;;5079980;28;20047;-76
2022/11/11 03:28:55;;;;;;;65.43;19.65;;;5.90;99.90;;;;;;5079810;28;20098;-76
2022/11/11 03:31:41;;;;;;;74.90;19.67;;;5.80;99.90;;;;;;5074831;28;20406;-76
2022/11/11 03:34:27;;;;;;;61.35;18.42;;;5.80;99.90;;;;;;5078600;28;20059;-76
2022/11/11 03:40:17;;;;;;;61.13;18.67;;;5.80;99.90;;;;;;5076292;28;20406;-76
2022/11/11 03:43:02;;;;;;;59.28;18.48;;;5.80;99.90;;;;;;5079558;28;20526;-76
2022/11/11 03:45:51;;;;;;;60.28;18.83;;;5.80;99.90;;;;;;5076871;28;20059;-76
2022/11/11 03:48:37;;;;;;;57.90;16.88;;;5.70;99.90;;;;;;5076279;28;20059;-76
2022/11/11 03:51:23;;;;;;;61.72;18.55;;;5.70;99.90;;;;;;5078697;28;20169;-77
2022/11/11 03:54:09;;;;;;;57.85;17.48;;;5.70;99.90;;;;;;5078377;28;20062;-77
2022/11/11 03:57:29;;;;;;;59.13;17.63;;;5.70;99.90;;;;;;5074783;28;20043;-77
2022/11/11 04:00:04;;;;;;;61.95;17.10;;;5.70;99.90;;;;;;5074449;28;20170;-77
2022/11/11 04:12:21;;;;;;;;;;;5.60;99.90;;;;;;5071554;28;20108;-77
2022/11/11 04:18:12;;;;;;;56.83;16.45;;;5.60;99.90;;;;;;5075458;28;20055;-77
2022/11/11 04:24:02;;;;;;;64.70;18.17;;;5.60;99.90;;;;;;5076988;28;20067;-77
2022/11/11 04:26:48;;;;;;;55.38;16.20;;;5.50;99.90;;;;;;5077801;28;20823;-77
2022/11/11 04:29:34;;;;;;;53.55;17.08;;;5.60;99.90;;;;;;5084375;28;20058;-77
2022/11/11 04:32:39;;;;;;;64.15;17.30;;;5.50;99.90;;;;;;5074993;28;20051;-77
2022/11/11 04:35:25;;;;;;;67.72;17.88;;;5.50;99.90;;;;;;5075450;28;20125;-77
2022/11/11 04:41:15;;;;;;;59.25;17.75;;;5.50;99.90;;;;;;5079754;28;20533;-77
2022/11/11 04:47:06;;;;;;;62.42;19.40;;;5.40;99.90;;;;;;5075672;28;20059;-77
2022/11/11 04:49:52;;;;;;;63.53;20.05;;;5.40;99.90;;;;;;5075105;28;20052;-77
2022/11/11 04:52:37;;;;;;;58.85;17.63;;;5.40;99.90;;;;;;5077749;28;20059;-77
2022/11/11 04:58:31;;;;;;;71.00;19.77;;;5.30;99.90;;;;;;5075568;28;20050;-77
2022/11/11 05:03:14;;;;;;;74.80;20.85;;;5.30;99.90;;;;;;5081014;28;20065;-77
2022/11/11 05:04:22;;;;;;;70.55;19.85;;;5.30;99.90;;;;;;5079545;28;20102;-77
2022/11/11 05:10:12;;;;;;;72.43;22.83;;;5.30;99.90;;;;;;5073810;28;20044;-77
2022/11/11 05:21:19;;;;;;;68.00;19.67;;;5.20;99.90;;;;;;5079491;28;20052;-77
2022/11/11 05:22:31;;;;;;;79.13;20.30;;;5.20;99.90;;;;;;5075834;28;20051;-77
2022/11/11 05:25:25;;;;;;;78.00;20.80;;;5.20;99.90;;;;;;5075515;28;20626;-77
2022/11/11 05:28:11;;;;;;;72.72;21.13;;;5.10;99.90;;;;;;5075523;28;20055;-77
2022/11/11 05:30:56;;;;;;;79.18;21.95;;;5.10;99.90;;;;;;5076846;28;20158;-77
2022/11/11 05:33:42;;;;;;;68.30;21.10;;;5.10;99.90;;;;;;5072812;28;20078;-77
2022/11/11 05:36:27;;;;;;;68.28;20.60;;;5.10;99.90;;;;;;5071909;28;20110;-77
2022/11/11 05:39:13;;;;;;;78.45;20.15;;;5.10;99.90;;;;;;5076894;28;20509;-76
2022/11/11 05:41:58;;;;;;;68.72;19.33;;;5.10;99.90;;;;;;5077651;28;20043;-77
2022/11/11 05:44:44;;;;;;;74.18;20.88;;;5.00;99.90;;;;;;5081578;28;20534;-77
2022/11/11 05:47:30;;;;;;;68.05;20.15;;;5.00;99.90;;;;;;5078516;28;20068;-77
2022/11/11 05:50:15;;;;;;;75.03;18.58;;;5.00;99.90;;;;;;5081530;28;20117;-77
2022/11/11 05:53:01;;;;;;;68.13;21.23;;;5.10;99.90;;;;;;5080819;28;20048;-77
2022/11/11 05:55:49;;;;;;;68.32;20.02;;;5.00;99.90;;;;;;5083832;28;20174;-76
2022/11/11 05:58:34;;;;;;;71.53;20.25;;;5.10;99.90;;;;;;5079782;28;20514;-77
2022/11/11 06:01:20;;;;;;;73.15;22.02;;;5.00;99.90;;;;;;5076770;28;20228;-77
2022/11/11 06:04:06;;;;;;;67.25;20.52;;;5.00;99.90;;;;;;5079275;28;20123;-77
2022/11/11 06:06:51;;;;;;;78.85;22.35;;;5.00;99.90;;;;;;5083345;28;20062;-77
2022/11/11 06:09:37;;;;;;;75.68;21.25;;;5.00;99.90;;;;;;5081771;28;20067;-77
2022/11/11 06:12:23;;;;;;;82.93;22.42;;;5.00;99.90;;;;;;5084228;28;20050;-77
2022/11/11 06:15:09;;;;;;;72.22;21.08;;;5.00;99.90;;;;;;5082827;28;20097;-77
2022/11/11 06:17:54;;;;;;;72.63;20.17;;;5.00;99.90;;;;;;5079546;28;20077;-77
2022/11/11 06:20:40;;;;;;;75.15;20.48;;;5.00;99.90;;;;;;5075201;28;20093;-77
2022/11/11 06:23:27;;;;;;;74.43;20.48;;;5.00;99.90;;;;;;5077760;28;20154;-77
2022/11/11 06:26:13;;;;;;;74.80;23.45;;;5.00;99.90;;;;;;5077099;28;20842;-77
2022/11/11 06:28:59;;;;;;;84.07;23.83;;;5.10;99.90;;;;;;5077985;28;20592;-77
2022/11/11 06:31:45;;;;;;;76.88;24.05;;;5.20;99.90;;;;;;5073832;28;20109;-77
2022/11/11 06:34:30;;;;;;;90.70;23.35;;;5.20;99.90;;;;;;5076945;28;20526;-77
2022/11/11 06:37:16;;;;;;;79.65;24.02;;;5.30;99.90;;;;;;5083152;28;20052;-77
2022/11/11 06:40:02;;;;;;;89.28;24.63;;;5.30;99.90;;;;;;5077670;28;20114;-76
2022/11/11 06:42:48;;;;;;;81.20;25.58;;;5.30;99.90;;;;;;5079744;28;20430;-77
2022/11/11 06:45:35;;;;;;;84.13;24.85;;;5.40;99.90;;;;;;5076629;28;20513;-77
2022/11/11 06:48:22;;;;;;;84.45;23.10;;;5.40;99.90;;;;;;5079964;28;20048;-77
2022/11/11 06:51:10;;;;;;;86.28;24.90;;;5.50;99.90;;;;;;5077653;28;20068;-77
2022/11/11 06:53:55;;;;;;;86.38;25.20;;;5.60;99.90;;;;;;5089303;28;20051;-77
2022/11/11 06:56:41;;;;;;;94.30;25.98;;;5.70;99.90;;;;;;5078508;28;20055;-77
2022/11/11 06:59:26;;;;;;;93.47;25.90;;;5.80;99.90;;;;;;5079986;28;20048;-76
2022/11/11 07:02:13;;;;;;;89.50;26.38;;;5.80;99.90;;;;;;5080700;28;20051;-79
2022/11/11 07:04:59;;;;;;;86.63;27.25;;;5.90;99.90;;;;;;5080800;28;20178;-79
2022/11/11 07:07:45;;;;;;;106.28;30.30;;;6.00;99.90;;;;;;5079438;28;20063;-79
2022/11/11 07:10:34;;;;;;;114.43;30.20;;;6.10;99.90;;;;;;5076981;28;20086;-79
2022/11/11 07:13:20;;;;;;;100.63;28.85;;;6.20;99.90;;;;;;5079421;28;20411;-78
2022/11/11 07:16:06;;;;;;;95.88;29.35;;;6.30;99.90;;;;;;5084404;28;20058;-78
2022/11/11 07:18:52;;;;;;;108.90;29.48;;;6.30;99.90;;;;;;5080375;28;20052;-79
2022/11/11 07:21:37;;;;;;;118.68;32.15;;;6.40;99.90;;;;;;5077547;28;20063;-79
2022/11/11 07:24:23;;;;;;;116.35;30.55;;;6.50;99.90;;;;;;5079030;28;20058;-79
2022/11/11 07:27:08;;;;;;;130.93;35.25;;;6.50;99.90;;;;;;5087466;28;20058;-79
2022/11/11 07:29:54;;;;;;;119.88;33.20;;;6.60;99.90;;;;;;5084414;28;20091;-79
2022/11/11 07:32:48;;;;;;;130.82;33.95;;;6.70;99.90;;;;;;5080530;28;20058;-79
2022/11/11 07:35:33;;;;;;;133.18;31.92;;;6.70;99.90;;;;;;5079389;28;20058;-79
2022/11/11 07:38:19;;;;;;;129.57;32.50;;;6.80;99.90;;;;;;5075142;28;20518;-79
2022/11/11 07:41:04;;;;;;;155.82;37.80;;;6.90;99.90;;;;;;5081553;28;20055;-79
2022/11/11 07:43:50;;;;;;;157.40;41.22;;;7.00;99.90;;;;;;5078052;28;20055;-79
2022/11/11 07:46:36;;;;;;;156.02;41.50;;;7.10;99.90;;;;;;5076104;28;20075;-79
2022/11/11 07:49:22;;;;;;;158.68;40.90;;;7.10;99.90;;;;;;5073477;28;20051;-79
2022/11/11 07:52:07;;;;;;;148.52;38.47;;;7.20;99.90;;;;;;5082096;28;20050;-78
2022/11/11 07:54:53;;;;;;;142.50;39.00;;;7.30;99.90;;;;;;5077317;28;20051;-78
2022/11/11 07:57:39;;;;;;;146.30;38.55;;;7.40;99.90;;;;;;5079925;28;20060;-78
2022/11/11 08:00:25;;;;;;;154.07;39.05;;;7.40;99.90;;;;;;5086601;28;20055;-78
2022/11/11 08:03:10;;;;;;;166.02;44.17;;;7.50;99.90;;;;;;5086344;28;20059;-78
2022/11/11 08:05:56;;;;;;;154.60;43.47;;;7.60;99.90;;;;;;5079067;28;20106;-78
2022/11/11 08:08:42;;;;;;;166.35;42.70;;;7.70;99.90;;;;;;5081201;28;20051;-78
2022/11/11 08:14:31;;;;;;;155.70;41.70;;;7.90;99.90;;;;;;5075768;28;20573;-78
2022/11/11 08:17:17;;;;;;;164.35;43.33;;;8.00;99.90;;;;;;5076642;28;20043;-77
2022/11/11 08:20:03;;;;;;;154.43;41.90;;;8.10;99.90;;;;;;5070479;28;20185;-78
2022/11/11 08:22:53;;;;;;;161.30;44.58;;;8.00;99.90;;;;;;5073739;28;21247;-78
2022/11/11 08:26:00;;;;;;;151.80;42.92;;;8.10;99.90;;;;;;5076182;28;20055;-77
2022/11/11 08:28:46;;;;;;;160.82;45.47;;;8.30;99.90;;;;;;5077553;28;20128;-77
2022/11/11 08:31:34;;;;;;;150.38;41.03;;;8.40;99.90;;;;;;5078893;28;20122;-77
2022/11/11 08:34:19;;;;;;;159.32;47.25;;;8.60;99.90;;;;;;5080877;28;21315;-77
2022/11/11 08:37:05;;;;;;;157.93;46.35;;;8.60;99.90;;;;;;5077780;28;20048;-77
2022/11/11 08:39:52;;;;;;;146.18;44.00;;;8.70;99.90;;;;;;5075216;28;20446;-77
2022/11/11 08:42:37;;;;;;;147.20;41.10;;;8.80;99.90;;;;;;5076600;28;20051;-77
2022/11/11 08:45:24;;;;;;;147.50;41.95;;;8.90;99.90;;;;;;5076813;28;20128;-77
2022/11/11 08:48:10;;;;;;;128.27;38.35;;;9.00;99.90;;;;;;5078565;28;20174;-78
2022/11/11 08:50:56;;;;;;;120.50;35.60;;;9.10;99.90;;;;;;5076580;28;20092;-77
2022/11/11 08:53:42;;;;;;;101.22;31.27;;;9.20;99.90;;;;;;5074690;28;20124;-77
2022/11/11 08:56:27;;;;;;;104.85;32.13;;;9.30;99.90;;;;;;5078463;28;20116;-77
2022/11/11 08:59:13;;;;;;;98.95;30.25;;;9.40;99.90;;;;;;5079240;28;20055;-77
2022/11/11 09:01:58;;;;;;;74.88;25.70;;;9.50;99.90;;;;;;5079624;28;20058;-77
2022/11/11 09:04:44;;;;;;;60.05;23.55;;;9.50;99.90;;;;;;5078946;28;20517;-77
2022/11/11 09:07:33;;;;;;;58.42;21.75;;;9.60;99.90;;;;;;5078321;28;20078;-77
2022/11/11 09:10:19;;;;;;;44.60;17.73;;;9.70;99.90;;;;;;5077490;28;20063;-77
2022/11/11 09:13:05;;;;;;;44.97;16.85;;;9.90;99.90;;;;;;5080060;28;20070;-77
2022/11/11 09:15:53;;;;;;;38.60;17.00;;;10.00;99.90;;;;;;5076080;28;20055;-77
2022/11/11 09:18:39;;;;;;;37.28;16.35;;;10.20;99.90;;;;;;5073015;28;20049;-77
2022/11/11 09:21:24;;;;;;;41.80;17.33;;;10.30;99.90;;;;;;5080008;28;20047;-77
2022/11/11 09:24:11;;;;;;;46.15;18.60;;;10.50;99.90;;;;;;5090744;28;20116;-78
2022/11/11 09:26:56;;;;;;;49.78;19.17;;;10.80;99.90;;;;;;5081836;28;20051;-77
2022/11/11 09:29:42;;;;;;;46.13;17.92;;;11.00;99.90;;;;;;5082044;28;20059;-77
2022/11/11 09:32:28;;;;;;;36.97;16.88;;;11.20;99.90;;;;;;5080558;28;20044;-77
2022/11/11 09:35:14;;;;;;;40.13;17.25;;;11.30;99.90;;;;;;5083857;28;20051;-78
2022/11/11 09:38:01;;;;;;;40.15;16.08;;;11.30;99.90;;;;;;5082291;28;20525;-78
2022/11/11 09:41:11;;;;;;;34.60;14.43;;;11.40;99.90;;;;;;5081828;28;20167;-78
2022/11/11 09:43:59;;;;;;;31.02;11.05;;;11.50;99.90;;;;;;5084388;28;21984;-77
2022/11/11 09:47:15;;;;;;;23.52;11.02;;;11.40;99.90;;;;;;5078045;28;20083;-77
2022/11/11 09:50:02;;;;;;;25.55;10.57;;;11.30;99.90;;;;;;5082235;28;20047;-77
2022/11/11 09:53:05;;;;;;;24.77;9.73;;;11.30;99.90;;;;;;5081328;28;20048;-77
2022/11/11 09:55:57;;;;;;;26.58;9.63;;;11.40;99.90;;;;;;5088663;28;20148;-77
2022/11/11 09:58:49;;;;;;;24.58;10.88;;;11.20;99.90;;;;;;5079713;28;20147;-78
2022/11/11 10:02:01;;;;;;;22.67;10.07;;;11.30;99.90;;;;;;5079956;28;20051;-78
2022/11/11 10:05:09;;;;;;;26.55;12.52;;;11.50;99.90;;;;;;5079053;28;20125;-78
2022/11/11 10:08:06;;;;;;;33.13;14.95;;;11.50;99.90;;;;;;5082797;28;20118;-77
2022/11/11 10:10:53;;;;;;;31.05;14.88;;;11.70;99.90;;;;;;5076342;28;20048;-78
2022/11/11 10:13:39;;;;;;;29.95;14.57;;;11.60;99.90;;;;;;5071795;28;20051;-77
2022/11/11 10:16:46;;;;;;;29.00;13.75;;;11.70;99.90;;;;;;5079226;28;20145;-78
2022/11/11 10:20:00;;;;;;;29.48;13.25;;;11.70;99.90;;;;;;5082812;28;20173;-78
2022/11/11 10:22:52;;;;;;;33.42;15.35;;;11.70;99.90;;;;;;5080705;28;20043;-78
2022/11/11 10:25:43;;;;;;;32.67;14.55;;;11.80;99.90;;;;;;5085625;28;20050;-78
2022/11/11 10:28:34;;;;;;;29.95;13.65;;;11.90;99.90;;;;;;5077263;28;20385;-78
2022/11/11 10:31:22;;;;;;;30.02;12.82;;;11.90;99.90;;;;;;5083212;28;20035;-77
2022/11/11 10:34:13;;;;;;;20.67;9.25;;;12.10;99.90;;;;;;5079651;28;20047;-78
2022/11/11 10:36:59;;;;;;;21.80;10.82;;;12.10;99.90;;;;;;5077574;28;20512;-77
2022/11/11 10:39:55;;;;;;;19.50;10.00;;;12.10;99.90;;;;;;5080991;28;20052;-77
2022/11/11 10:42:40;;;;;;;23.65;10.30;;;12.10;99.90;;;;;;5079954;28;20071;-77
2022/11/11 10:45:37;;;;;;;18.42;9.38;;;12.20;99.90;;;;;;5079611;28;20185;-77
2022/11/11 10:48:52;;;;;;;24.48;10.20;;;12.40;99.90;;;;;;5081619;28;20059;-77
2022/11/11 10:51:46;;;;;;;21.08;10.43;;;12.50;99.90;;;;;;5073240;28;20063;-78
2022/11/11 10:54:40;;;;;;;20.70;10.30;;;12.50;99.90;;;;;;5094496;27;20113;-77
2022/11/11 10:57:41;;;;;;;19.48;7.85;;;12.70;99.90;;;;;;5080968;28;20055;-77
2022/11/11 11:00:27;;;;;;;17.42;8.65;;;12.70;99.90;;;;;;5081371;28;20051;-78
2022/11/11 11:03:29;;;;;;;16.20;7.47;;;12.70;99.90;;;;;;5080291;28;20051;-78
2022/11/11 11:06:23;;;;;;;13.73;6.43;;;12.80;99.90;;;;;;5073767;28;21913;-77
2022/11/11 11:09:22;;;;;;;14.00;6.30;;;12.90;99.30;;;;;;5076996;28;20055;-78
2022/11/11 11:12:30;;;;;;;14.77;6.65;;;12.90;98.40;;;;;;5073894;28;20059;-78
2022/11/11 11:15:27;;;;;;;14.20;6.72;;;12.80;99.00;;;;;;5082161;28;20043;-78
2022/11/11 11:18:15;;;;;;;15.80;6.30;;;12.80;99.40;;;;;;5080058;28;20051;-78
2022/11/11 11:21:03;;;;;;;13.98;6.93;;;12.80;98.50;;;;;;5078699;28;20185;-78
2022/11/11 11:23:49;;;;;;;18.27;8.48;;;12.80;99.60;;;;;;5069152;28;20059;-78
2022/11/11 11:26:50;;;;;;;20.50;9.55;;;12.70;99.70;;;;;;5077258;28;20056;-78
2022/11/11 11:29:42;;;;;;;20.20;9.63;;;12.70;99.90;;;;;;5079392;28;20059;-77
2022/11/11 11:32:31;;;;;;;15.90;8.55;;;12.70;99.90;;;;;;5077921;28;20047;-78
2022/11/11 11:35:38;;;;;;;19.40;8.88;;;12.70;99.90;;;;;;5075847;28;20051;-77
2022/11/11 11:38:40;;;;;;;19.02;9.82;;;12.70;99.90;;;;;;5080007;28;20390;-77
2022/11/11 11:41:37;;;;;;;18.40;9.43;;;12.70;99.90;;;;;;5082849;28;20063;-77
2022/11/11 11:44:34;;;;;;;17.85;8.55;;;12.70;99.90;;;;;;5078638;28;20055;-77
2022/11/11 11:47:37;;;;;;;17.52;8.43;;;12.70;99.90;;;;;;5080973;28;20052;-78
2022/11/11 11:51:16;;;;;;;17.65;8.48;;;12.60;99.90;;;;;;5081170;28;20055;-77
2022/11/11 11:54:32;;;;;;;25.00;10.85;;;12.60;99.90;;;;;;5042710;28;20048;-77
2022/11/11 11:57:50;;;;;;;23.60;11.88;;;12.60;99.90;;;;;;5043644;28;20046;-77
2022/11/11 12:00:53;;;;;;;24.23;11.48;;;12.60;99.90;;;;;;5080917;28;20977;-78
2022/11/11 12:03:59;;;;;;;24.75;13.05;;;12.50;99.90;;;;;;5075956;28;21892;-77
2022/11/11 12:07:33;;;;;;;29.02;12.30;;;12.50;99.90;;;;;;5075991;28;20208;-77
2022/11/11 12:10:24;;;;;;;29.35;14.43;;;12.50;99.90;;;;;;5080583;28;20048;-78
2022/11/11 12:13:28;;;;;;;28.63;13.15;;;12.60;99.90;;;;;;5085188;28;20051;-78
2022/11/11 12:16:17;;;;;;;28.33;13.18;;;12.60;99.90;;;;;;5083079;28;20063;-77
2022/11/11 12:19:25;;;;;;;22.63;10.63;;;12.60;99.90;;;;;;5085004;28;20054;-77
2022/11/11 12:22:44;;;;;;;19.02;10.02;;;12.60;99.90;;;;;;5073691;28;20190;-77
2022/11/11 12:25:48;;;;;;;19.98;10.07;;;12.70;99.90;;;;;;5076783;28;20055;-77
2022/11/11 12:28:47;;;;;;;20.70;9.82;;;12.70;99.90;;;;;;5084564;28;20054;-77
2022/11/11 12:31:45;;;;;;;19.55;9.48;;;12.70;99.90;;;;;;5076664;28;20055;-78
2022/11/11 12:34:52;;;;;;;20.50;8.45;;;12.70;99.90;;;;;;5079730;28;21656;-77
2022/11/11 12:37:50;;;;;;;18.30;9.75;;;12.80;99.90;;;;;;5078406;28;20121;-78
2022/11/11 12:40:53;;;;;;;18.48;9.18;;;12.80;99.90;;;;;;5075582;28;20059;-77
2022/11/11 12:43:51;;;;;;;;;;;12.80;99.90;;;;;;5092782;28;20514;-77
2022/11/11 12:46:55;;;;;;;18.35;8.80;;;12.60;99.90;;;;;;5076441;28;20028;-78
2022/11/11 12:49:53;;;;;;;16.95;7.70;;;12.60;99.90;;;;;;5081132;28;20043;-77
2022/11/11 12:52:57;;;;;;;16.80;7.93;;;12.60;99.90;;;;;;5075741;28;20448;-77
2022/11/11 12:55:47;;;;;;;16.38;8.05;;;12.60;99.90;;;;;;5078716;28;20145;-77
2022/11/11 12:58:45;;;;;;;49.13;11.60;;;12.70;99.90;;;;;;5081437;28;20050;-77
2022/11/11 13:01:50;;;;;;;16.23;8.20;;;12.80;99.90;;;;;;5077013;28;21084;-77
2022/11/11 13:05:06;;;;;;;27.05;8.30;;;12.90;99.90;;;;;;5081812;28;20086;-78
2022/11/11 13:08:08;;;;;;;19.88;8.55;;;13.00;99.90;;;;;;5079894;28;20063;-78
2022/11/11 13:11:15;;;;;;;17.73;9.32;;;13.00;99.90;;;;;;5078889;28;20060;-78
2022/11/11 13:14:34;;;;;;;20.35;9.60;;;13.00;99.90;;;;;;5080151;28;20086;-78
2022/11/11 13:17:20;;;;;;;20.38;10.15;;;13.00;99.90;;;;;;5083005;28;20418;-78
2022/11/11 13:20:28;;;;;;;22.73;8.75;;;13.00;99.90;;;;;;5085108;28;20044;-78
2022/11/11 13:23:14;;;;;;;19.02;9.43;;;13.10;99.90;;;;;;5077759;28;20059;-78
2022/11/11 13:26:05;;;;;;;14.20;8.00;;;13.10;99.90;;;;;;5072196;28;20098;-77
2022/11/11 13:29:04;;;;;;;16.75;8.38;;;13.10;99.90;;;;;;5075518;28;20055;-77
2022/11/11 13:31:52;;;;;;;19.10;8.55;;;13.00;99.90;;;;;;5074696;28;20141;-78
2022/11/11 13:34:40;;;;;;;19.60;9.52;;;12.90;99.90;;;;;;5074594;28;20167;-78
2022/11/11 13:37:29;;;;;;;18.70;9.60;;;12.90;99.90;;;;;;5076672;28;20517;-78
2022/11/11 13:40:42;;;;;;;25.58;10.48;;;12.90;99.90;;;;;;5075359;28;20174;-78
2022/11/11 13:43:33;;;;;;;17.95;8.57;;;12.80;99.90;;;;;;5073580;28;20125;-78
2022/11/11 13:46:37;;;;;;;23.27;11.10;;;12.80;99.90;;;;;;5080618;28;20995;-77
2022/11/11 13:49:25;;;;;;;22.35;10.73;;;12.70;99.90;;;;;;5073443;28;20533;-78
2022/11/11 13:52:26;;;;;;;23.45;10.55;;;12.70;99.90;;;;;;5075092;28;20047;-78
2022/11/11 13:55:36;;;;;;;21.98;9.15;;;12.60;99.90;;;;;;5078727;28;20098;-78
2022/11/11 13:58:29;;;;;;;19.38;9.80;;;12.60;99.90;;;;;;5080561;28;20079;-77
2022/11/11 14:01:16;;;;;;;18.90;8.65;;;12.50;99.90;;;;;;5074637;28;20051;-78
2022/11/11 14:04:05;;;;;;;18.63;8.43;;;12.50;99.90;;;;;;5077283;28;20047;-78
2022/11/11 14:06:52;;;;;;;18.83;6.65;;;12.50;99.90;;;;;;5076806;28;20072;-78
2022/11/11 14:09:58;;;;;;;12.93;4.38;;;12.50;99.90;;;;;;5079406;28;20056;-78
2022/11/11 14:12:50;;;;;;;3.70;1.30;;;12.40;99.30;;;;;;5082259;28;20518;-77
2022/11/11 14:15:35;;;;;;;6.70;2.40;;;12.50;97.30;;;;;;5081369;28;20059;-78
2022/11/11 14:18:24;;;;;;;4.93;1.42;;;12.50;96.60;;;;;;5085783;28;20509;-78
2022/11/11 14:21:30;;;;;;;5.18;1.98;;;12.40;97.30;;;;;;5075831;28;20111;-77
2022/11/11 14:24:39;;;;;;;7.93;1.80;;;12.30;97.00;;;;;;5078687;28;20629;-78
2022/11/11 14:27:29;;;;;;;13.13;4.95;;;12.30;97.20;;;;;;5081674;28;20056;-78
2022/11/11 14:30:28;;;;;;;19.52;8.35;;;12.20;97.00;;;;;;5078756;28;20525;-78
2022/11/11 14:33:19;;;;;;;15.13;10.73;;;12.10;97.70;;;;;;5079977;28;20044;-77
2022/11/11 14:36:34;;;;;;;4.50;2.47;;;12.00;98.10;;;;;;5084274;28;20102;-78
2022/11/11 14:39:52;;;;;;;8.30;2.20;;;12.00;98.60;;;;;;5085571;28;20047;-78
2022/11/11 14:42:40;;;;;;;5.60;2.35;;;11.90;99.30;;;;;;5085892;28;20063;-78
2022/11/11 14:45:28;;;;;;;8.73;2.47;;;11.70;99.90;;;;;;5079974;28;20430;-79
2022/11/11 14:48:52;;;;;;;10.48;2.00;;;11.70;99.90;;;;;;5077975;28;20517;-79
2022/11/11 14:51:47;;;;;;;7.38;2.40;;;11.60;99.90;;;;;;5079090;28;20047;-79
2022/11/11 14:54:52;;;;;;;9.48;3.45;;;11.60;99.90;;;;;;5078005;28;20055;-79
2022/11/11 14:57:41;;;;;;;18.52;6.47;;;11.50;99.90;;;;;;5087102;28;20066;-79
2022/11/11 15:00:30;;;;;;;12.13;6.03;;;11.40;99.90;;;;;;5080340;28;20039;-79
2022/11/11 15:03:31;;;;;;;12.77;6.65;;;11.40;99.90;;;;;;5075816;28;20133;-79
2022/11/11 15:06:30;;;;;;;17.70;8.20;;;11.30;99.90;;;;;;5075763;28;20054;-79
2022/11/11 15:09:22;;;;;;;20.95;9.10;;;11.30;99.90;;;;;;5078836;28;20433;-79
2022/11/11 15:12:17;;;;;;;15.25;7.85;;;11.20;99.90;;;;;;5077944;28;20109;-79
2022/11/11 15:15:34;;;;;;;16.15;7.93;;;11.10;99.90;;;;;;5077428;28;20258;-79
2022/11/11 15:18:29;;;;;;;17.50;8.02;;;11.00;99.90;;;;;;5073506;28;20136;-79
2022/11/11 15:21:25;;;;;;;15.57;7.78;;;10.90;99.90;;;;;;5079033;28;20121;-79
2022/11/11 15:24:35;;;;;;;19.95;9.13;;;10.80;99.90;;;;;;5081494;28;20043;-79
2022/11/11 15:27:52;;;;;;;22.05;9.23;;;10.70;99.90;;;;;;5085719;28;20506;-79
2022/11/11 15:30:44;;;;;;;15.65;8.07;;;10.60;99.90;;;;;;5076677;28;20128;-76
2022/11/11 15:33:49;;;;;;;17.17;8.60;;;10.50;99.90;;;;;;5080762;28;20048;-77
2022/11/11 15:37:01;;;;;;;20.80;8.68;;;10.40;99.90;;;;;;5071808;28;20056;-77
2022/11/11 15:39:54;;;;;;;21.50;8.98;;;10.40;99.90;;;;;;5080825;28;20642;-77
2022/11/11 15:42:46;;;;;;;20.67;8.52;;;10.30;99.90;;;;;;5080991;28;20056;-77
2022/11/11 15:45:34;;;;;;;15.35;7.40;;;10.30;99.90;;;;;;5082564;28;20166;-77
2022/11/11 15:48:29;;;;;;;17.67;7.80;;;10.20;99.90;;;;;;5086188;28;20517;-77
2022/11/11 15:51:17;;;;;;;16.35;7.53;;;10.20;99.90;;;;;;5083148;28;20071;-75
2022/11/11 15:54:10;;;;;;;17.98;7.50;;;10.10;99.90;;;;;;5077290;28;20415;-75
2022/11/11 15:56:55;;;;;;;12.73;6.13;;;10.00;99.90;;;;;;5078286;28;20055;-75
2022/11/11 15:59:41;;;;;;;21.95;8.02;;;10.00;99.90;;;;;;5077291;28;20039;-75